Terminal Aerodrome Forecast
Issued by NWS

Home | Current Version | Previous Version | Text Only | Print | Product List | Glossary On
Versions: 1 2 3 4 5 6 7 8 9 10 11 12 13
000
FTUS42 KTAE 291700
TAFDHN
TAF
KDHN 291739Z 2918/3018 22010KT P6SM SCT250
     FM300100 23005KT P6SM BKN020
     FM300700 33010KT P6SM BKN015
     FM301200 35015KT P6SM SKC=

USA.gov is the U.S. government's official web portal to all federal, state and local government web resources and services.